Time;durP1;ratioP1;P1;durP2;ratioP2;P2;SDS_P1;SDS_P2;PMS_P1;PMS_P2;Temp;Humidity;BMP_temperature;BMP_pressure;BME280_temperature;BME280_humidity;BME280_pressure;Samples;Min_cycle;Max_cycle;Signal;HPM_P1;HPM_P2
2022/04/27 00:01:09;;;;;;;27.63;6.80;;;4.70;99.90;;;;;;4973940;28;20062;-71
2022/04/27 00:03:35;;;;;;;10.75;5.50;;;4.80;99.90;;;;;;4979362;28;20038;-71
2022/04/27 00:06:00;;;;;;;11.55;6.38;;;4.60;99.90;;;;;;4973305;28;20048;-71
2022/04/27 00:08:26;;;;;;;12.70;5.70;;;4.70;99.90;;;;;;4973518;28;20076;-71
2022/04/27 00:10:52;;;;;;;12.63;6.63;;;4.70;99.90;;;;;;4954010;28;20507;-71
2022/04/27 00:13:18;;;;;;;16.13;6.97;;;4.70;99.90;;;;;;4971845;28;20050;-71
2022/04/27 00:15:44;;;;;;;14.18;6.78;;;4.70;99.90;;;;;;4974763;28;20161;-71
2022/04/27 00:18:09;;;;;;;16.80;6.80;;;4.80;99.90;;;;;;4967159;28;20034;-71
2022/04/27 00:20:35;;;;;;;10.45;6.78;;;4.80;99.90;;;;;;4967683;28;20065;-71
2022/04/27 00:23:01;;;;;;;21.33;5.88;;;4.70;99.90;;;;;;4965090;28;20047;-71
2022/04/27 00:25:28;;;;;;;15.70;5.72;;;4.30;99.90;;;;;;4968549;28;20045;-71
2022/04/27 00:27:54;;;;;;;11.55;4.72;;;4.10;99.90;;;;;;4973124;28;20058;-71
2022/04/27 00:30:20;;;;;;;12.80;5.70;;;3.90;99.90;;;;;;4967703;28;20062;-71
2022/04/27 00:32:46;;;;;;;10.68;5.35;;;3.80;99.90;;;;;;4975655;28;20038;-71
2022/04/27 00:35:12;;;;;;;12.02;5.03;;;3.70;99.90;;;;;;4970854;28;20042;-71
2022/04/27 00:37:37;;;;;;;10.95;5.43;;;3.60;99.90;;;;;;4972722;28;20550;-71
2022/04/27 00:40:04;;;;;;;8.65;4.85;;;3.50;99.90;;;;;;4970226;28;20532;-71
2022/04/27 00:42:30;;;;;;;10.82;5.78;;;3.50;99.90;;;;;;4967457;28;20193;-71
2022/04/27 00:44:56;;;;;;;13.38;5.85;;;3.40;99.90;;;;;;4966857;28;20144;-71
2022/04/27 00:47:21;;;;;;;13.18;5.32;;;3.40;99.90;;;;;;4967269;28;20330;-71
2022/04/27 00:49:50;;;;;;;10.27;5.20;;;3.20;99.90;;;;;;4971485;28;20054;-71
2022/04/27 00:52:16;;;;;;;12.13;5.57;;;3.10;99.90;;;;;;4972545;28;20123;-71
2022/04/27 00:54:44;;;;;;;12.63;7.07;;;3.20;99.90;;;;;;4963369;28;20937;-71
2022/04/27 00:57:10;;;;;;;14.40;7.20;;;3.20;99.90;;;;;;4965032;28;20046;-71
2022/04/27 00:59:36;;;;;;;12.10;6.88;;;3.30;99.90;;;;;;4965360;28;20119;-71
2022/04/27 01:02:06;;;;;;;11.90;6.53;;;3.30;99.90;;;;;;4967308;28;20125;-71
2022/04/27 01:04:37;;;;;;;13.35;6.95;;;3.10;99.90;;;;;;4967462;28;20435;-71
2022/04/27 01:07:04;;;;;;;11.60;6.45;;;3.10;99.90;;;;;;4965912;28;20395;-71
2022/04/27 01:09:31;;;;;;;13.88;8.70;;;3.10;99.90;;;;;;4968973;28;20045;-71
2022/04/27 01:11:58;;;;;;;13.45;8.57;;;3.10;99.90;;;;;;4969641;28;20143;-71
2022/04/27 01:14:25;;;;;;;13.20;8.40;;;3.00;99.90;;;;;;4969018;28;20390;-71
2022/04/27 01:16:52;;;;;;;14.00;8.82;;;3.00;99.90;;;;;;4966364;28;20053;-71
2022/04/27 01:19:19;;;;;;;13.52;8.27;;;3.00;99.90;;;;;;4969407;28;20061;-71
2022/04/27 01:21:47;;;;;;;13.88;7.32;;;3.00;99.90;;;;;;4969622;28;20556;-71
2022/04/27 01:24:13;;;;;;;25.80;8.65;;;3.10;99.90;;;;;;4969165;28;20049;-71
2022/04/27 01:26:38;;;;;;;60.17;9.40;;;3.20;99.90;;;;;;4968201;28;21242;-71
2022/04/27 01:29:04;;;;;;;15.75;8.30;;;3.30;99.90;;;;;;4980434;28;20041;-71
2022/04/27 01:31:30;;;;;;;33.40;8.50;;;3.30;99.90;;;;;;4979050;28;20100;-71
2022/04/27 01:33:56;;;;;;;40.28;8.57;;;3.20;99.90;;;;;;4956779;28;20045;-71
2022/04/27 01:36:22;;;;;;;26.75;7.65;;;3.00;99.90;;;;;;4966359;28;20046;-71
2022/04/27 01:38:49;;;;;;;13.63;7.93;;;2.90;99.90;;;;;;4967192;28;20513;-71
2022/04/27 01:41:15;;;;;;;22.08;7.55;;;2.90;99.90;;;;;;4967657;28;20099;-71
2022/04/27 01:43:41;;;;;;;32.72;7.55;;;2.90;99.90;;;;;;4965175;28;20046;-71
2022/04/27 01:46:07;;;;;;;39.25;7.00;;;2.90;99.90;;;;;;4981997;28;20064;-71
2022/04/27 01:48:33;;;;;;;18.15;5.57;;;2.80;99.90;;;;;;4982271;28;20534;-71
2022/04/27 01:51:00;;;;;;;13.15;4.78;;;2.70;99.90;;;;;;4982462;28;20045;-71
2022/04/27 01:56:10;;;;;;;50.47;8.55;;;2.70;99.90;;;;;;4979072;28;20857;-71
2022/04/27 01:58:36;;;;;;;25.15;6.13;;;2.70;99.90;;;;;;4965780;28;20048;-71
2022/04/27 02:01:02;;;;;;;12.65;6.40;;;2.60;99.90;;;;;;4981418;28;20080;-71
2022/04/27 02:03:28;;;;;;;13.20;6.35;;;2.80;99.90;;;;;;4981108;28;20046;-71
2022/04/27 02:05:54;;;;;;;11.38;7.63;;;2.80;99.90;;;;;;4984419;28;20037;-71
2022/04/27 02:08:20;;;;;;;13.15;7.40;;;2.90;99.90;;;;;;4983975;28;20131;-71
2022/04/27 02:10:46;;;;;;;15.48;8.27;;;2.90;99.90;;;;;;4969915;28;20112;-71
2022/04/27 02:13:12;;;;;;;18.75;9.13;;;2.90;99.90;;;;;;4972660;28;20073;-71
2022/04/27 02:15:38;;;;;;;15.75;9.05;;;2.90;99.90;;;;;;4995180;28;20049;-71
2022/04/27 02:18:05;;;;;;;60.42;10.80;;;2.70;99.90;;;;;;4981190;28;20056;-71
2022/04/27 02:20:31;;;;;;;20.38;11.52;;;2.70;99.90;;;;;;4999452;28;20421;-71
2022/04/27 02:22:57;;;;;;;21.27;9.40;;;2.80;99.90;;;;;;4983250;28;20084;-71
2022/04/27 02:25:23;;;;;;;23.05;10.07;;;2.80;99.90;;;;;;4983327;28;20053;-71
2022/04/27 02:27:49;;;;;;;15.38;9.23;;;2.70;99.90;;;;;;4999890;28;20072;-71
2022/04/27 02:30:16;;;;;;;14.43;8.65;;;2.70;99.90;;;;;;5002984;28;20465;-70
2022/04/27 02:32:54;;;;;;;33.15;9.82;;;2.70;99.90;;;;;;5001036;28;20504;-71
2022/04/27 02:35:21;;;;;;;22.77;8.95;;;2.60;99.90;;;;;;4999255;28;20041;-71
2022/04/27 02:37:46;;;;;;;17.70;8.85;;;2.70;99.90;;;;;;5000988;28;20073;-70
2022/04/27 02:40:12;;;;;;;15.10;8.93;;;2.80;99.90;;;;;;4998401;28;20172;-71
2022/04/27 02:42:38;;;;;;;13.63;8.30;;;2.80;99.90;;;;;;4999264;28;20150;-71
2022/04/27 02:45:05;;;;;;;13.75;9.38;;;2.80;99.90;;;;;;4997723;28;20530;-71
2022/04/27 02:47:31;;;;;;;44.13;10.80;;;2.80;99.90;;;;;;4996448;28;20076;-71
2022/04/27 02:52:41;;;;;;;46.58;9.98;;;2.80;99.90;;;;;;4998674;28;20049;-71
2022/04/27 02:55:07;;;;;;;42.13;10.13;;;2.70;99.90;;;;;;4994706;28;20045;-71
2022/04/27 02:57:33;;;;;;;19.33;8.98;;;2.50;99.90;;;;;;4996003;28;20072;-71
2022/04/27 02:59:59;;;;;;;16.70;9.23;;;2.40;99.90;;;;;;4978047;28;20484;-71
2022/04/27 03:02:25;;;;;;;15.07;8.60;;;2.30;99.90;;;;;;4996561;28;20049;-71
2022/04/27 03:04:51;;;;;;;13.50;8.60;;;2.20;99.90;;;;;;4998165;28;20033;-71
2022/04/27 03:07:16;;;;;;;15.70;9.05;;;2.20;99.90;;;;;;4999274;28;20389;-71
2022/04/27 03:09:42;;;;;;;14.95;8.45;;;1.90;99.90;;;;;;4999860;28;23153;-71
2022/04/27 03:12:08;;;;;;;22.63;10.35;;;1.90;99.90;;;;;;4998255;28;20051;-71
2022/04/27 03:14:34;;;;;;;21.70;9.15;;;1.90;99.90;;;;;;5000706;28;20052;-71
2022/04/27 03:17:00;;;;;;;21.23;9.68;;;1.80;99.90;;;;;;4978656;28;20053;-71
2022/04/27 03:19:33;;;;;;;23.02;9.27;;;1.80;99.90;;;;;;4982131;28;20049;-71
2022/04/27 03:21:59;;;;;;;38.67;9.45;;;1.80;99.90;;;;;;4966823;28;20501;-71
2022/04/27 03:24:25;;;;;;;27.75;11.23;;;1.80;99.90;;;;;;4999068;28;20057;-71
2022/04/27 03:26:51;;;;;;;29.80;10.05;;;1.90;99.90;;;;;;4994901;28;20440;-71
2022/04/27 03:29:17;;;;;;;16.73;8.30;;;2.10;99.90;;;;;;4998731;28;20071;-71
2022/04/27 03:31:43;;;;;;;18.52;9.13;;;2.00;99.90;;;;;;5000053;28;20091;-70
2022/04/27 03:34:09;;;;;;;14.10;9.10;;;2.10;99.90;;;;;;4995604;28;20042;-71
2022/04/27 03:36:35;;;;;;;16.77;8.85;;;2.20;99.90;;;;;;4982921;28;20374;-71
2022/04/27 03:39:00;;;;;;;19.85;9.32;;;2.20;99.90;;;;;;5000476;28;20129;-71
2022/04/27 03:41:28;;;;;;;18.27;10.35;;;2.20;99.90;;;;;;4997464;28;20937;-71
2022/04/27 03:43:54;;;;;;;18.67;9.27;;;2.20;99.90;;;;;;4999709;28;20049;-71
2022/04/27 03:46:20;;;;;;;24.42;10.48;;;2.10;99.90;;;;;;4998238;28;20138;-71
2022/04/27 03:48:47;;;;;;;23.95;9.90;;;2.10;99.90;;;;;;4999518;28;20049;-70
2022/04/27 03:51:13;;;;;;;16.42;10.48;;;2.10;99.90;;;;;;4979983;28;20169;-71
2022/04/27 03:53:39;;;;;;;17.00;10.88;;;2.00;99.90;;;;;;4998206;28;20045;-71
2022/04/27 03:56:06;;;;;;;29.65;11.20;;;2.10;99.90;;;;;;4997625;28;20053;-71
2022/04/27 03:58:32;;;;;;;22.60;9.82;;;2.20;99.90;;;;;;4980475;28;20053;-71
2022/04/27 04:00:58;;;;;;;46.22;11.45;;;2.20;99.90;;;;;;4981423;28;20611;-71
2022/04/27 04:03:24;;;;;;;24.58;10.63;;;2.20;99.90;;;;;;4981925;28;20053;-71
2022/04/27 04:05:50;;;;;;;23.42;10.27;;;2.30;99.90;;;;;;5002141;28;20058;-71
2022/04/27 04:08:16;;;;;;;18.63;9.73;;;2.30;99.90;;;;;;4998874;28;20046;-70
2022/04/27 04:10:42;;;;;;;47.72;10.95;;;2.30;99.90;;;;;;5002890;28;20524;-71
2022/04/27 04:13:07;;;;;;;48.40;11.85;;;2.30;99.90;;;;;;4998919;28;20057;-71
2022/04/27 04:15:37;;;;;;;43.65;10.85;;;2.40;99.90;;;;;;5000458;28;20080;-71
2022/04/27 04:18:04;;;;;;;30.50;10.55;;;2.40;99.90;;;;;;4999039;28;20051;-71
2022/04/27 04:20:30;;;;;;;22.90;11.98;;;2.50;99.90;;;;;;4998363;28;20049;-71
2022/04/27 04:22:57;;;;;;;27.42;10.43;;;2.50;99.90;;;;;;5000088;28;20049;-71
2022/04/27 04:30:51;;;;;;;36.90;11.73;;;2.70;99.90;;;;;;4976913;28;20054;-71
2022/04/27 04:33:17;;;;;;;57.42;12.98;;;2.80;99.90;;;;;;4979687;28;20073;-71
2022/04/27 04:35:43;;;;;;;58.72;12.68;;;2.90;99.90;;;;;;4983100;28;20057;-71
2022/04/27 04:38:09;;;;;;;61.50;14.85;;;3.00;99.90;;;;;;4992229;28;20390;-71
2022/04/27 04:40:35;;;;;;;42.08;12.65;;;3.10;99.90;;;;;;4998291;28;20043;-71
2022/04/27 04:43:01;;;;;;;75.18;15.20;;;3.20;99.90;;;;;;4976398;28;20062;-71
2022/04/27 04:45:27;;;;;;;43.95;13.43;;;3.20;99.90;;;;;;4998053;28;20119;-71
2022/04/27 04:47:54;;;;;;;73.47;13.85;;;3.30;99.90;;;;;;4995671;28;20053;-71
2022/04/27 04:50:20;;;;;;;35.28;12.27;;;3.50;99.90;;;;;;4977687;28;20045;-71
2022/04/27 04:52:46;;;;;;;35.13;11.82;;;3.60;99.90;;;;;;4981566;28;20058;-71
2022/04/27 04:55:12;;;;;;;39.83;10.85;;;3.60;99.90;;;;;;4996824;28;20045;-71
2022/04/27 04:57:38;;;;;;;41.08;13.30;;;3.80;99.90;;;;;;4999812;28;20086;-71
2022/04/27 05:00:05;;;;;;;28.42;10.93;;;4.40;99.90;;;;;;4993444;28;20076;-71
2022/04/27 05:02:31;;;;;;;32.20;11.55;;;4.60;99.90;;;;;;4977875;28;20150;-71
2022/04/27 05:04:58;;;;;;;35.17;12.63;;;4.80;99.90;;;;;;4996686;28;20520;-71
2022/04/27 05:07:24;;;;;;;35.50;12.27;;;4.70;99.90;;;;;;5000058;28;20473;-71
2022/04/27 05:09:50;;;;;;;33.53;16.00;;;5.70;99.90;;;;;;5000048;28;20057;-71
2022/04/27 05:12:16;;;;;;;41.47;12.25;;;7.50;99.90;;;;;;4968309;28;21092;-71
2022/04/27 05:14:42;;;;;;;54.20;13.73;;;7.10;99.90;;;;;;4982589;28;20049;-71
2022/04/27 05:17:08;;;;;;;47.25;12.88;;;8.10;99.90;;;;;;4998429;28;20045;-71
2022/04/27 05:19:33;;;;;;;33.58;12.93;;;8.10;99.90;;;;;;4980871;28;20053;-71
2022/04/27 05:21:59;;;;;;;44.60;14.15;;;7.50;99.90;;;;;;4997319;28;20046;-71
2022/04/27 05:24:25;;;;;;;55.38;15.13;;;8.70;99.90;;;;;;5001191;28;20583;-71
2022/04/27 05:26:51;;;;;;;17.13;12.90;;;9.00;99.90;;;;;;4999653;28;20227;-71
2022/04/27 05:32:03;;;;;;;30.60;12.75;;;7.90;99.90;;;;;;4996838;28;20045;-71
2022/04/27 05:34:30;;;;;;;37.78;13.40;;;9.70;99.90;;;;;;4999818;28;20053;-71
2022/04/27 05:36:56;;;;;;;37.00;13.15;;;10.70;99.90;;;;;;4998912;28;20508;-71
2022/04/27 05:39:23;;;;;;;26.02;12.07;;;11.60;99.90;;;;;;4999120;28;20048;-71
2022/04/27 05:41:50;;;;;;;36.70;13.23;;;12.30;99.90;;;;;;5001666;28;20825;-71
2022/04/27 05:44:22;;;;;;;37.50;13.13;;;12.90;99.90;;;;;;4979784;28;20060;-72
2022/04/27 05:46:52;;;;;;;32.25;12.98;;;11.80;99.90;;;;;;4999620;28;20841;-71
2022/04/27 05:49:18;;;;;;;30.58;13.48;;;10.80;99.90;;;;;;4984956;28;20449;-71
2022/04/27 05:51:44;;;;;;;26.92;12.68;;;10.60;99.90;;;;;;5000594;28;20073;-71
2022/04/27 05:54:11;;;;;;;33.10;13.15;;;10.40;99.90;;;;;;4982438;28;20172;-72
2022/04/27 05:56:37;;;;;;;24.83;12.73;;;10.60;99.90;;;;;;4997855;28;20460;-71
2022/04/27 05:59:03;;;;;;;31.48;13.80;;;10.00;99.90;;;;;;4982872;28;21043;-71
2022/04/27 06:01:31;;;;;;;51.53;14.65;;;9.80;99.90;;;;;;4981958;28;20049;-71
2022/04/27 06:03:56;;;;;;;44.95;14.27;;;9.70;99.90;;;;;;4997710;28;20084;-72
2022/04/27 06:06:23;;;;;;;25.70;13.38;;;9.50;99.90;;;;;;4998066;28;20129;-71
2022/04/27 06:08:50;;;;;;;27.05;13.80;;;9.30;99.90;;;;;;4997537;28;20069;-71
2022/04/27 06:11:22;;;;;;;30.85;14.38;;;9.40;99.90;;;;;;4996582;28;20037;-71
2022/04/27 06:13:48;;;;;;;45.33;14.57;;;9.30;99.90;;;;;;4999488;28;20116;-71
2022/04/27 06:16:15;;;;;;;84.43;18.50;;;9.30;99.90;;;;;;4976383;28;21000;-71
2022/04/27 06:18:41;;;;;;;23.60;12.73;;;9.40;99.90;;;;;;5000451;28;20053;-71
2022/04/27 06:21:10;;;;;;;22.88;12.95;;;9.50;99.90;;;;;;4980309;28;20056;-72
2022/04/27 06:23:38;;;;;;;37.05;12.90;;;9.80;99.90;;;;;;4996715;28;20103;-71
2022/04/27 06:26:05;;;;;;;38.42;12.73;;;9.80;99.90;;;;;;4992283;28;20041;-71
2022/04/27 06:28:32;;;;;;;27.15;12.02;;;9.80;99.90;;;;;;4994060;28;20731;-72
2022/04/27 06:30:58;;;;;;;20.30;10.88;;;9.80;99.90;;;;;;4979400;28;20053;-71
2022/04/27 06:33:24;;;;;;;25.65;10.82;;;9.90;99.90;;;;;;4994860;28;20050;-71
2022/04/27 06:35:50;;;;;;;22.27;10.13;;;10.00;99.90;;;;;;4998274;28;20064;-72
2022/04/27 06:38:16;;;;;;;26.27;10.57;;;10.10;99.90;;;;;;4997687;28;20060;-72
2022/04/27 06:40:42;;;;;;;35.88;12.02;;;10.10;99.90;;;;;;4995067;28;20763;-71
2022/04/27 06:43:08;;;;;;;22.92;11.57;;;10.20;99.90;;;;;;4997762;28;20041;-72
2022/04/27 06:45:36;;;;;;;30.88;11.18;;;10.20;99.90;;;;;;4996812;28;20819;-72
2022/04/27 06:48:05;;;;;;;18.70;9.50;;;10.30;99.90;;;;;;4994761;28;20137;-72
2022/04/27 06:50:31;;;;;;;30.42;9.90;;;10.40;99.90;;;;;;4996579;28;20037;-72
2022/04/27 06:53:00;;;;;;;25.48;9.10;;;10.40;99.90;;;;;;4965589;28;20057;-72
2022/04/27 06:55:27;;;;;;;14.65;8.20;;;10.50;99.90;;;;;;4978941;28;20077;-72
2022/04/27 06:57:53;;;;;;;47.58;9.82;;;10.50;99.90;;;;;;4995615;28;20053;-71
2022/04/27 07:00:20;;;;;;;31.70;8.98;;;10.70;99.90;;;;;;4962210;28;20246;-72
2022/04/27 07:02:46;;;;;;;23.20;7.68;;;10.90;99.90;;;;;;4997848;28;20076;-72
2022/04/27 07:05:17;;;;;;;27.77;9.18;;;11.10;99.90;;;;;;4996712;28;20045;-72
2022/04/27 07:07:43;;;;;;;31.30;8.30;;;11.00;99.90;;;;;;4980834;28;20056;-72
2022/04/27 07:10:12;;;;;;;14.27;6.53;;;11.20;99.90;;;;;;4997463;28;20053;-71
2022/04/27 07:12:38;;;;;;;76.03;10.57;;;11.20;99.90;;;;;;4998378;28;20627;-72
2022/04/27 07:15:05;;;;;;;25.95;6.57;;;11.40;99.90;;;;;;4998965;28;20472;-72
2022/04/27 07:17:31;;;;;;;10.60;5.18;;;11.60;99.90;;;;;;4998761;28;20456;-72
2022/04/27 07:19:57;;;;;;;10.07;5.35;;;11.60;99.90;;;;;;5000011;28;20045;-72
2022/04/27 07:22:23;;;;;;;12.20;6.03;;;11.60;99.90;;;;;;4998662;28;20049;-72
2022/04/27 07:24:49;;;;;;;15.48;5.07;;;12.20;99.90;;;;;;5000727;28;20127;-72
2022/04/27 07:27:18;;;;;;;12.23;3.05;;;13.40;99.90;;;;;;4981384;28;20053;-72
2022/04/27 07:29:44;;;;;;;14.70;2.75;;;13.30;99.90;;;;;;4999019;28;20107;-72
2022/04/27 07:32:10;;;;;;;13.45;2.28;;;13.10;99.90;;;;;;4977785;28;20242;-72
2022/04/27 07:34:36;;;;;;;15.80;2.10;;;12.90;99.90;;;;;;4977215;28;20046;-72
2022/04/27 07:37:03;;;;;;;5.68;2.08;;;12.80;99.90;;;;;;4996354;28;20157;-72
2022/04/27 07:39:29;;;;;;;7.90;1.90;;;12.70;99.90;;;;;;4998860;28;20083;-72
2022/04/27 07:41:55;;;;;;;10.65;2.50;;;12.50;99.90;;;;;;4980929;28;20135;-72
2022/04/27 07:44:21;;;;;;;13.57;2.72;;;12.50;99.90;;;;;;4980635;28;20111;-72
2022/04/27 07:46:47;;;;;;;8.25;1.80;;;12.50;99.90;;;;;;4997245;28;20057;-72
2022/04/27 07:49:20;;;;;;;7.20;2.40;;;12.50;99.90;;;;;;4995914;28;20057;-72
2022/04/27 07:51:50;;;;;;;9.85;2.83;;;12.50;99.90;;;;;;4978379;28;20049;-72
2022/04/27 07:54:16;;;;;;;14.68;3.00;;;12.50;99.90;;;;;;4975464;28;20049;-72
2022/04/27 07:56:42;;;;;;;13.25;3.17;;;12.00;98.90;;;;;;4991797;28;20056;-72
2022/04/27 07:59:08;;;;;;;15.77;3.45;;;12.50;99.90;;;;;;4993596;28;20158;-72
2022/04/27 08:01:34;;;;;;;8.38;2.30;;;12.60;99.90;;;;;;4994728;28;20186;-72
2022/04/27 08:04:00;;;;;;;10.68;3.63;;;12.80;99.90;;;;;;4972197;28;20111;-72
2022/04/27 08:06:26;;;;;;;8.90;3.55;;;12.80;99.90;;;;;;4970395;28;20827;-72
2022/04/27 08:08:52;;;;;;;7.93;3.30;;;12.90;99.90;;;;;;4983971;28;20817;-72
2022/04/27 08:11:17;;;;;;;6.53;2.35;;;12.80;99.90;;;;;;4987172;28;20056;-72
2022/04/27 08:13:44;;;;;;;12.80;2.65;;;12.80;99.90;;;;;;4980183;28;20472;-72
2022/04/27 08:16:11;;;;;;;8.38;1.90;;;12.70;99.90;;;;;;4995072;28;20045;-72
2022/04/27 08:18:40;;;;;;;5.40;1.70;;;12.30;80.90;;;;;;4997573;28;20038;-72
2022/04/27 08:21:15;;;;;;;10.35;2.10;;;12.20;83.50;;;;;;4994491;28;20405;-72
2022/04/27 08:23:43;;;;;;;6.47;1.92;;;12.50;93.70;;;;;;4993626;28;20116;-72
2022/04/27 08:26:10;;;;;;;8.48;1.83;;;12.40;91.80;;;;;;4994862;28;20052;-72
2022/04/27 08:28:39;;;;;;;6.90;1.70;;;12.60;99.90;;;;;;4998061;28;20041;-72
2022/04/27 08:31:07;;;;;;;5.00;1.73;;;12.80;99.90;;;;;;4994887;28;20042;-72
2022/04/27 08:33:33;;;;;;;14.77;2.00;;;12.70;94.80;;;;;;4974181;28;20056;-72
2022/04/27 08:36:00;;;;;;;4.80;1.65;;;12.50;93.00;;;;;;4975983;28;20128;-72
2022/04/27 08:38:30;;;;;;;9.38;1.92;;;12.30;79.70;;;;;;4977658;28;20067;-72
2022/04/27 08:40:57;;;;;;;6.68;1.95;;;12.60;86.90;;;;;;4995610;28;20122;-72
2022/04/27 08:43:23;;;;;;;8.68;1.95;;;12.40;75.80;;;;;;4991705;28;20049;-72
2022/04/27 08:45:49;;;;;;;8.07;2.10;;;12.80;93.30;;;;;;5001863;28;20049;-72
2022/04/27 08:48:21;;;;;;;8.15;2.22;;;13.40;99.20;;;;;;4955991;28;20406;-72
2022/04/27 08:50:48;;;;;;;11.85;2.33;;;13.30;77.10;;;;;;4956278;28;20116;-72
2022/04/27 08:53:14;;;;;;;12.93;2.50;;;13.50;84.80;;;;;;4953812;28;20596;-72
2022/04/27 08:55:41;;;;;;;5.68;1.85;;;13.60;73.70;;;;;;4953227;28;20193;-72
2022/04/27 08:58:10;;;;;;;5.50;1.50;;;13.20;72.80;;;;;;4957178;28;20108;-72
2022/04/27 09:00:37;;;;;;;7.97;1.63;;;12.40;68.90;;;;;;4953332;28;20051;-72
2022/04/27 09:03:25;;;;;;;9.25;2.20;;;12.60;74.20;;;;;;4953258;28;20469;-72
2022/04/27 09:05:55;;;;;;;6.40;2.50;;;13.00;82.00;;;;;;4948786;28;20128;-72
2022/04/27 09:08:24;;;;;;;5.75;2.00;;;13.60;93.00;;;;;;4947310;28;20140;-72
2022/04/27 09:11:09;;;;;;;4.75;1.80;;;13.90;78.80;;;;;;4953541;28;20428;-72
2022/04/27 09:13:35;;;;;;;6.68;1.88;;;13.50;74.90;;;;;;4956316;28;20214;-72
2022/04/27 09:16:02;;;;;;;5.30;2.25;;;13.20;74.70;;;;;;4959556;28;20042;-72
2022/04/27 09:21:59;;;;;;;4.63;1.90;;;13.30;83.60;;;;;;4955418;28;20410;-73
2022/04/27 09:24:29;;;;;;;6.95;2.30;;;13.40;77.90;;;;;;4957057;28;20149;-72
2022/04/27 09:27:14;;;;;;;8.25;2.22;;;13.30;75.60;;;;;;4960406;28;20058;-72
2022/04/27 09:29:40;;;;;;;8.20;1.90;;;13.50;82.30;;;;;;4954365;28;20051;-72
2022/04/27 09:32:08;;;;;;;6.07;1.75;;;13.70;79.20;;;;;;4957247;28;20116;-73
2022/04/27 09:34:44;;;;;;;4.00;1.60;;;13.70;79.30;;;;;;4955373;28;20054;-72
2022/04/27 09:37:16;;;;;;;6.45;1.77;;;13.20;69.00;;;;;;4956170;28;20054;-72
2022/04/27 09:39:43;;;;;;;5.00;1.70;;;13.40;73.00;;;;;;4945749;28;20497;-73
2022/04/27 09:42:10;;;;;;;8.32;1.80;;;13.20;72.70;;;;;;4955228;28;20458;-73
2022/04/27 09:44:38;;;;;;;5.53;1.90;;;13.80;74.00;;;;;;4955244;28;20530;-73
2022/04/27 09:47:05;;;;;;;7.78;2.40;;;13.60;71.20;;;;;;4974598;28;20059;-72
2022/04/27 09:49:32;;;;;;;5.72;2.08;;;13.90;72.40;;;;;;4991612;28;20804;-73
2022/04/27 09:52:00;;;;;;;6.80;2.00;;;14.10;84.30;;;;;;4982021;28;20049;-72
2022/04/27 09:54:30;;;;;;;11.02;2.58;;;13.80;78.20;;;;;;4971916;28;20049;-72
2022/04/27 09:56:59;;;;;;;7.82;2.30;;;13.90;74.10;;;;;;4968941;28;20095;-72
2022/04/27 09:59:30;;;;;;;8.50;2.30;;;13.80;77.30;;;;;;4978021;28;20179;-73
2022/04/27 10:02:00;;;;;;;11.50;2.78;;;14.10;76.20;;;;;;4946407;28;20152;-73
2022/04/27 10:04:31;;;;;;;10.02;2.55;;;14.30;83.90;;;;;;4982360;28;20046;-73
2022/04/27 10:06:58;;;;;;;7.40;2.47;;;14.20;80.40;;;;;;4957586;28;20063;-72
2022/04/27 10:09:28;;;;;;;5.57;2.53;;;14.00;77.50;;;;;;4940018;28;20080;-73
2022/04/27 10:12:00;;;;;;;7.80;2.72;;;14.00;72.20;;;;;;4953958;28;20543;-73
2022/04/27 10:14:26;;;;;;;8.95;2.75;;;14.20;79.10;;;;;;4979924;28;20048;-72
2022/04/27 10:16:57;;;;;;;6.13;2.40;;;14.20;81.30;;;;;;4965678;28;20054;-73
2022/04/27 10:19:23;;;;;;;7.13;2.40;;;13.70;69.00;;;;;;4980061;28;20104;-73
2022/04/27 10:21:57;;;;;;;7.38;2.35;;;14.20;73.50;;;;;;4990014;28;20049;-72
2022/04/27 10:24:32;;;;;;;;;;;14.10;68.90;;;;;;4982113;28;20131;-73
2022/04/27 10:27:18;;;;;;;7.35;3.00;;;14.00;68.80;;;;;;4983798;28;19960;-72
2022/04/27 10:29:58;;;;;;;7.93;2.80;;;14.30;75.50;;;;;;4997833;28;20037;-71
2022/04/27 10:32:44;;;;;;;4.90;2.50;;;14.60;70.60;;;;;;5000764;28;20076;-72
2022/04/27 10:35:14;;;;;;;6.15;2.70;;;13.60;71.40;;;;;;4997985;28;21000;-72
2022/04/27 10:37:44;;;;;;;8.80;2.60;;;13.90;72.10;;;;;;4982449;28;20068;-72
2022/04/27 10:40:38;;;;;;;9.60;2.55;;;13.80;70.00;;;;;;5000487;28;20041;-71
2022/04/27 10:43:07;;;;;;;10.60;2.92;;;13.80;69.50;;;;;;5001161;28;20052;-71
2022/04/27 10:45:34;;;;;;;10.70;2.45;;;14.40;78.00;;;;;;5000537;28;20049;-71
2022/04/27 10:48:04;;;;;;;14.43;2.92;;;14.60;71.80;;;;;;4996713;28;20062;-71
2022/04/27 10:50:37;;;;;;;9.27;2.30;;;14.90;68.90;;;;;;5001247;28;20635;-71
2022/04/27 10:53:20;;;;;;;9.20;2.65;;;15.30;66.50;;;;;;4981777;28;20049;-71
2022/04/27 10:55:54;;;;;;;9.75;2.53;;;15.30;64.30;;;;;;4979529;28;20146;-71
2022/04/27 10:58:28;;;;;;;4.00;2.33;;;16.20;71.60;;;;;;4979204;28;20821;-71
2022/04/27 11:01:02;;;;;;;8.68;2.70;;;16.90;66.70;;;;;;4997463;28;20057;-71
2022/04/27 11:03:30;;;;;;;8.52;2.60;;;16.90;68.90;;;;;;5001758;28;20045;-71
2022/04/27 11:06:02;;;;;;;8.77;2.60;;;16.80;70.20;;;;;;4998100;28;20045;-71
2022/04/27 11:09:01;;;;;;;10.38;2.75;;;16.70;67.90;;;;;;4999218;28;20064;-71
2022/04/27 11:11:28;;;;;;;8.40;2.33;;;16.40;66.80;;;;;;5001241;28;20042;-71
2022/04/27 11:14:04;;;;;;;7.90;2.45;;;16.10;66.80;;;;;;4998096;28;20079;-71
2022/04/27 11:16:41;;;;;;;6.68;2.25;;;15.70;67.70;;;;;;4999192;28;20125;-72
2022/04/27 11:19:08;;;;;;;24.75;3.05;;;15.60;63.40;;;;;;4997663;28;20092;-71
2022/04/27 11:21:34;;;;;;;8.05;2.47;;;15.80;61.50;;;;;;4998286;28;20099;-71
2022/04/27 11:24:05;;;;;;;11.55;3.20;;;16.50;71.20;;;;;;4997687;28;20170;-72
2022/04/27 11:26:40;;;;;;;17.50;3.05;;;17.10;71.20;;;;;;4998472;28;20041;-72
2022/04/27 11:29:06;;;;;;;16.02;2.97;;;15.90;64.10;;;;;;4995749;28;20528;-72
2022/04/27 11:31:33;;;;;;;8.85;2.70;;;16.20;62.50;;;;;;4996660;28;20255;-72
2022/04/27 11:33:59;;;;;;;22.90;3.30;;;15.80;63.00;;;;;;4961814;28;20056;-71
2022/04/27 11:36:27;;;;;;;18.40;3.22;;;15.30;61.60;;;;;;4980597;28;20045;-72
2022/04/27 11:38:55;;;;;;;16.83;3.03;;;15.10;64.20;;;;;;4990973;28;20054;-72
2022/04/27 11:41:25;;;;;;;6.07;2.20;;;14.80;62.60;;;;;;4990011;28;20057;-71
2022/04/27 11:43:55;;;;;;;4.32;2.00;;;14.30;63.20;;;;;;4977333;28;20053;-71
2022/04/27 11:46:21;;;;;;;10.13;2.78;;;14.80;63.10;;;;;;4976360;28;20053;-71
2022/04/27 11:48:48;;;;;;;7.20;2.20;;;15.20;63.90;;;;;;4994007;28;20832;-71
2022/04/27 11:51:14;;;;;;;8.25;2.30;;;14.90;62.70;;;;;;4992666;28;20053;-72
2022/04/27 11:53:48;;;;;;;12.38;2.80;;;14.60;61.80;;;;;;4993305;28;20053;-71
2022/04/27 11:56:15;;;;;;;11.32;2.65;;;14.60;65.50;;;;;;4954643;28;20050;-71
2022/04/27 11:58:41;;;;;;;22.65;3.40;;;14.20;64.70;;;;;;4956407;28;20851;-71
2022/04/27 12:01:08;;;;;;;10.38;2.90;;;15.10;65.90;;;;;;4997292;28;20041;-72
2022/04/27 12:03:43;;;;;;;12.32;3.20;;;15.90;67.30;;;;;;4991602;28;20050;-72
2022/04/27 12:06:16;;;;;;;7.50;2.50;;;15.90;66.70;;;;;;4992893;28;20076;-72
2022/04/27 12:08:42;;;;;;;7.25;2.42;;;15.50;65.40;;;;;;4993932;28;20095;-72
2022/04/27 12:11:08;;;;;;;17.35;2.58;;;15.80;66.60;;;;;;4993349;28;20490;-72
2022/04/27 12:13:35;;;;;;;9.70;2.42;;;16.40;64.30;;;;;;4978046;28;20710;-73
2022/04/27 12:16:01;;;;;;;7.20;2.38;;;17.00;65.00;;;;;;4998643;28;20049;-72
2022/04/27 12:18:31;;;;;;;10.88;2.28;;;16.90;61.10;;;;;;4978399;28;20057;-72
2022/04/27 12:20:58;;;;;;;8.15;2.00;;;16.70;60.40;;;;;;4982923;28;20424;-72
2022/04/27 12:23:37;;;;;;;20.15;3.20;;;15.90;56.80;;;;;;4997643;28;20095;-72
2022/04/27 12:26:03;;;;;;;9.48;2.30;;;16.90;63.90;;;;;;5000798;28;20056;-72
2022/04/27 12:28:34;;;;;;;6.45;2.22;;;16.10;57.70;;;;;;4999669;28;20037;-72
2022/04/27 12:31:08;;;;;;;13.05;2.95;;;17.00;65.60;;;;;;4982185;28;20057;-73
2022/04/27 12:33:34;;;;;;;;;;;16.60;65.40;;;;;;5003722;28;20049;-73
2022/04/27 12:39:02;;;;;;;9.30;2.45;;;15.30;62.90;;;;;;4984830;28;20056;-73
2022/04/27 12:41:40;;;;;;;5.13;2.00;;;15.00;62.00;;;;;;5003099;28;20871;-73
2022/04/27 12:44:39;;;;;;;9.02;2.35;;;14.40;61.90;;;;;;4982348;28;20045;-73
2022/04/27 12:47:10;;;;;;;10.05;2.33;;;15.60;62.20;;;;;;4990422;28;20049;-73
2022/04/27 12:49:40;;;;;;;10.38;2.30;;;15.80;64.00;;;;;;4997954;28;20128;-73
2022/04/27 12:52:30;;;;;;;6.78;2.10;;;15.70;64.00;;;;;;5001164;28;20049;-73
2022/04/27 12:55:15;;;;;;;31.15;3.92;;;15.00;64.20;;;;;;4986497;28;20111;-72
2022/04/27 12:57:55;;;;;;;120.78;9.98;;;14.90;66.20;;;;;;4998160;28;20049;-74
2022/04/27 13:00:26;;;;;;;7.05;2.40;;;15.50;66.30;;;;;;4996574;28;20044;-72
2022/04/27 13:02:51;;;;;;;12.80;2.63;;;15.10;60.40;;;;;;4995484;28;20056;-72
2022/04/27 13:05:17;;;;;;;11.23;2.92;;;16.30;66.60;;;;;;4999697;28;20046;-72
2022/04/27 13:07:43;;;;;;;7.07;2.25;;;16.00;65.80;;;;;;5000642;28;20055;-72